sensor_id;sensor_type;location;lat;lon;timestamp;temperature;humidity
12655;DHT22;6392;44.644;11.448;2023-01-20T00:01:18;3.70;99.90
12655;DHT22;6392;44.644;11.448;2023-01-20T00:03:45;3.70;99.90
12655;DHT22;6392;44.644;11.448;2023-01-20T00:06:12;3.60;99.90
12655;DHT22;6392;44.644;11.448;2023-01-20T00:08:40;3.70;99.90
12655;DHT22;6392;44.644;11.448;2023-01-20T00:11:08;3.60;99.90
12655;DHT22;6392;44.644;11.448;2023-01-20T00:13:36;3.60;99.90
12655;DHT22;6392;44.644;11.448;2023-01-20T00:16:06;3.60;99.90
12655;DHT22;6392;44.644;11.448;2023-01-20T00:18:34;3.60;99.90
12655;DHT22;6392;44.644;11.448;2023-01-20T00:21:02;3.60;99.90
12655;DHT22;6392;44.644;11.448;2023-01-20T00:23:30;3.60;99.90
12655;DHT22;6392;44.644;11.448;2023-01-20T00:25:57;3.50;99.90
12655;DHT22;6392;44.644;11.448;2023-01-20T00:28:24;3.60;99.90
12655;DHT22;6392;44.644;11.448;2023-01-20T00:30:51;3.60;99.90
12655;DHT22;6392;44.644;11.448;2023-01-20T00:33:20;3.60;99.90
12655;DHT22;6392;44.644;11.448;2023-01-20T00:35:47;3.60;99.90
12655;DHT22;6392;44.644;11.448;2023-01-20T00:38:14;3.70;99.90
12655;DHT22;6392;44.644;11.448;2023-01-20T00:40:42;3.70;99.90
12655;DHT22;6392;44.644;11.448;2023-01-20T00:43:09;3.70;99.90
12655;DHT22;6392;44.644;11.448;2023-01-20T00:45:40;3.70;99.90
12655;DHT22;6392;44.644;11.448;2023-01-20T00:48:07;3.80;99.90
12655;DHT22;6392;44.644;11.448;2023-01-20T00:50:35;3.80;99.90
12655;DHT22;6392;44.644;11.448;2023-01-20T00:53:02;3.80;99.90
12655;DHT22;6392;44.644;11.448;2023-01-20T00:55:29;3.90;99.90
12655;DHT22;6392;44.644;11.448;2023-01-20T00:57:56;3.90;99.90
12655;DHT22;6392;44.644;11.448;2023-01-20T01:00:23;3.90;99.90
12655;DHT22;6392;44.644;11.448;2023-01-20T01:02:50;3.90;99.90
12655;DHT22;6392;44.644;11.448;2023-01-20T01:05:18;3.80;99.90
12655;DHT22;6392;44.644;11.448;2023-01-20T01:07:46;3.90;99.90
12655;DHT22;6392;44.644;11.448;2023-01-20T01:10:13;3.90;99.90
12655;DHT22;6392;44.644;11.448;2023-01-20T01:12:41;3.90;99.90
12655;DHT22;6392;44.644;11.448;2023-01-20T01:15:08;3.90;99.90
12655;DHT22;6392;44.644;11.448;2023-01-20T01:17:36;3.90;99.90
12655;DHT22;6392;44.644;11.448;2023-01-20T01:20:04;3.90;99.90
12655;DHT22;6392;44.644;11.448;2023-01-20T01:22:31;3.90;99.90
12655;DHT22;6392;44.644;11.448;2023-01-20T01:25:00;3.80;99.90
12655;DHT22;6392;44.644;11.448;2023-01-20T01:27:27;3.90;99.90
12655;DHT22;6392;44.644;11.448;2023-01-20T01:29:54;3.90;99.90
12655;DHT22;6392;44.644;11.448;2023-01-20T01:32:22;3.90;99.90
12655;DHT22;6392;44.644;11.448;2023-01-20T01:34:49;3.90;99.90
12655;DHT22;6392;44.644;11.448;2023-01-20T01:37:16;3.90;99.90
12655;DHT22;6392;44.644;11.448;2023-01-20T01:39:43;3.90;99.90
12655;DHT22;6392;44.644;11.448;2023-01-20T01:42:14;3.90;99.90
12655;DHT22;6392;44.644;11.448;2023-01-20T01:47:50;3.80;99.90
12655;DHT22;6392;44.644;11.448;2023-01-20T01:50:21;3.80;99.90
12655;DHT22;6392;44.644;11.448;2023-01-20T01:52:52;3.80;99.90
12655;DHT22;6392;44.644;11.448;2023-01-20T01:55:22;3.80;99.90
12655;DHT22;6392;44.644;11.448;2023-01-20T01:57:54;3.80;99.90
12655;DHT22;6392;44.644;11.448;2023-01-20T02:00:22;3.80;99.90
12655;DHT22;6392;44.644;11.448;2023-01-20T02:02:50;3.80;99.90
12655;DHT22;6392;44.644;11.448;2023-01-20T02:05:18;3.80;99.90
12655;DHT22;6392;44.644;11.448;2023-01-20T02:07:46;3.80;99.90
12655;DHT22;6392;44.644;11.448;2023-01-20T02:10:15;3.80;99.90
12655;DHT22;6392;44.644;11.448;2023-01-20T02:12:44;3.80;99.90
12655;DHT22;6392;44.644;11.448;2023-01-20T02:15:16;3.80;99.90
12655;DHT22;6392;44.644;11.448;2023-01-20T02:18:04;3.80;99.90
12655;DHT22;6392;44.644;11.448;2023-01-20T02:23:47;3.80;99.90
12655;DHT22;6392;44.644;11.448;2023-01-20T02:29:48;3.90;99.90
12655;DHT22;6392;44.644;11.448;2023-01-20T02:32:28;3.90;99.90
12655;DHT22;6392;44.644;11.448;2023-01-20T02:35:02;3.90;99.90
12655;DHT22;6392;44.644;11.448;2023-01-20T02:37:39;3.90;99.90
12655;DHT22;6392;44.644;11.448;2023-01-20T02:40:17;3.90;99.90
12655;DHT22;6392;44.644;11.448;2023-01-20T02:42:51;3.80;99.90
12655;DHT22;6392;44.644;11.448;2023-01-20T02:45:24;3.80;99.90
12655;DHT22;6392;44.644;11.448;2023-01-20T02:47:56;3.80;99.90
12655;DHT22;6392;44.644;11.448;2023-01-20T02:50:32;3.80;99.90
12655;DHT22;6392;44.644;11.448;2023-01-20T02:53:03;3.80;99.90
12655;DHT22;6392;44.644;11.448;2023-01-20T02:55:37;3.80;99.90
12655;DHT22;6392;44.644;11.448;2023-01-20T02:58:08;3.80;99.90
12655;DHT22;6392;44.644;11.448;2023-01-20T03:00:40;3.80;99.90
12655;DHT22;6392;44.644;11.448;2023-01-20T03:03:13;3.70;99.90
12655;DHT22;6392;44.644;11.448;2023-01-20T03:05:45;3.70;99.90
12655;DHT22;6392;44.644;11.448;2023-01-20T03:08:14;3.70;99.90
12655;DHT22;6392;44.644;11.448;2023-01-20T03:10:45;3.70;99.90
12655;DHT22;6392;44.644;11.448;2023-01-20T03:13:18;3.70;99.90
12655;DHT22;6392;44.644;11.448;2023-01-20T03:15:53;3.70;99.90
12655;DHT22;6392;44.644;11.448;2023-01-20T03:18:23;3.80;99.90
12655;DHT22;6392;44.644;11.448;2023-01-20T03:20:50;3.80;99.90
12655;DHT22;6392;44.644;11.448;2023-01-20T03:23:17;3.80;99.90
12655;DHT22;6392;44.644;11.448;2023-01-20T03:25:45;3.90;99.90
12655;DHT22;6392;44.644;11.448;2023-01-20T03:28:13;3.90;99.90
12655;DHT22;6392;44.644;11.448;2023-01-20T03:30:40;3.90;99.90
12655;DHT22;6392;44.644;11.448;2023-01-20T03:33:08;3.90;99.90
12655;DHT22;6392;44.644;11.448;2023-01-20T03:35:37;3.90;99.90
12655;DHT22;6392;44.644;11.448;2023-01-20T03:38:04;3.90;99.90
12655;DHT22;6392;44.644;11.448;2023-01-20T03:40:36;3.90;99.90
12655;DHT22;6392;44.644;11.448;2023-01-20T03:43:10;3.90;99.90
12655;DHT22;6392;44.644;11.448;2023-01-20T03:45:44;3.90;99.90
12655;DHT22;6392;44.644;11.448;2023-01-20T03:48:17;3.90;99.90
12655;DHT22;6392;44.644;11.448;2023-01-20T03:50:53;3.90;99.90
12655;DHT22;6392;44.644;11.448;2023-01-20T03:53:27;3.90;99.90
12655;DHT22;6392;44.644;11.448;2023-01-20T03:56:01;3.90;99.90
12655;DHT22;6392;44.644;11.448;2023-01-20T03:58:32;3.90;99.90
12655;DHT22;6392;44.644;11.448;2023-01-20T04:01:02;3.90;99.90
12655;DHT22;6392;44.644;11.448;2023-01-20T04:03:32;3.90;99.90
12655;DHT22;6392;44.644;11.448;2023-01-20T04:06:04;3.90;99.90
12655;DHT22;6392;44.644;11.448;2023-01-20T04:08:34;3.90;99.90
12655;DHT22;6392;44.644;11.448;2023-01-20T04:11:04;3.90;99.90
12655;DHT22;6392;44.644;11.448;2023-01-20T04:13:31;3.90;99.90
12655;DHT22;6392;44.644;11.448;2023-01-20T04:16:00;3.90;99.90
12655;DHT22;6392;44.644;11.448;2023-01-20T04:18:28;3.90;99.90
12655;DHT22;6392;44.644;11.448;2023-01-20T04:20:57;3.90;99.90
12655;DHT22;6392;44.644;11.448;2023-01-20T04:23:30;3.90;99.90
12655;DHT22;6392;44.644;11.448;2023-01-20T04:25:58;3.90;99.90
12655;DHT22;6392;44.644;11.448;2023-01-20T04:28:25;3.90;99.90
12655;DHT22;6392;44.644;11.448;2023-01-20T04:30:52;3.90;99.90
12655;DHT22;6392;44.644;11.448;2023-01-20T04:33:19;3.90;99.90
12655;DHT22;6392;44.644;11.448;2023-01-20T04:35:46;3.90;99.90
12655;DHT22;6392;44.644;11.448;2023-01-20T04:38:14;3.90;99.90
12655;DHT22;6392;44.644;11.448;2023-01-20T04:40:42;3.80;99.90
12655;DHT22;6392;44.644;11.448;2023-01-20T04:43:09;3.90;99.90
12655;DHT22;6392;44.644;11.448;2023-01-20T04:45:37;3.80;99.90
12655;DHT22;6392;44.644;11.448;2023-01-20T04:48:05;3.90;99.90
12655;DHT22;6392;44.644;11.448;2023-01-20T04:50:36;3.90;99.90
12655;DHT22;6392;44.644;11.448;2023-01-20T04:53:03;3.90;99.90
12655;DHT22;6392;44.644;11.448;2023-01-20T04:55:31;3.90;99.90
12655;DHT22;6392;44.644;11.448;2023-01-20T04:57:59;3.90;99.90
12655;DHT22;6392;44.644;11.448;2023-01-20T05:00:26;3.90;99.90
12655;DHT22;6392;44.644;11.448;2023-01-20T05:02:55;3.90;99.90
12655;DHT22;6392;44.644;11.448;2023-01-20T05:05:23;3.80;99.90
12655;DHT22;6392;44.644;11.448;2023-01-20T05:07:51;3.80;99.90
12655;DHT22;6392;44.644;11.448;2023-01-20T05:10:18;3.80;99.90
12655;DHT22;6392;44.644;11.448;2023-01-20T05:12:45;3.80;99.90
12655;DHT22;6392;44.644;11.448;2023-01-20T05:15:14;3.80;99.90
12655;DHT22;6392;44.644;11.448;2023-01-20T05:17:41;3.80;99.90
12655;DHT22;6392;44.644;11.448;2023-01-20T05:20:09;3.90;99.90
12655;DHT22;6392;44.644;11.448;2023-01-20T05:22:36;3.90;99.90
12655;DHT22;6392;44.644;11.448;2023-01-20T05:25:04;3.90;99.90
12655;DHT22;6392;44.644;11.448;2023-01-20T05:27:33;3.80;99.90
12655;DHT22;6392;44.644;11.448;2023-01-20T05:30:01;3.80;99.90
12655;DHT22;6392;44.644;11.448;2023-01-20T05:32:30;3.80;99.90
12655;DHT22;6392;44.644;11.448;2023-01-20T05:34:57;3.90;99.90
12655;DHT22;6392;44.644;11.448;2023-01-20T05:37:24;3.80;99.90
12655;DHT22;6392;44.644;11.448;2023-01-20T05:39:51;3.80;99.90
12655;DHT22;6392;44.644;11.448;2023-01-20T05:42:18;3.90;99.90
12655;DHT22;6392;44.644;11.448;2023-01-20T05:44:45;3.80;99.90
12655;DHT22;6392;44.644;11.448;2023-01-20T05:47:12;3.90;99.90
12655;DHT22;6392;44.644;11.448;2023-01-20T05:49:40;3.80;99.90
12655;DHT22;6392;44.644;11.448;2023-01-20T05:52:07;3.80;99.90
12655;DHT22;6392;44.644;11.448;2023-01-20T05:54:34;3.80;99.90
12655;DHT22;6392;44.644;11.448;2023-01-20T05:57:01;3.80;99.90
12655;DHT22;6392;44.644;11.448;2023-01-20T05:59:30;3.80;99.90
12655;DHT22;6392;44.644;11.448;2023-01-20T06:01:57;3.70;99.90
12655;DHT22;6392;44.644;11.448;2023-01-20T06:04:24;3.70;99.90
12655;DHT22;6392;44.644;11.448;2023-01-20T06:06:52;3.70;99.90
12655;DHT22;6392;44.644;11.448;2023-01-20T06:09:20;3.70;99.90
12655;DHT22;6392;44.644;11.448;2023-01-20T06:11:47;3.70;99.90
12655;DHT22;6392;44.644;11.448;2023-01-20T06:14:14;3.70;99.90
12655;DHT22;6392;44.644;11.448;2023-01-20T06:16:41;3.70;99.90
12655;DHT22;6392;44.644;11.448;2023-01-20T06:19:08;3.70;99.90
12655;DHT22;6392;44.644;11.448;2023-01-20T06:21:35;3.70;99.90
12655;DHT22;6392;44.644;11.448;2023-01-20T06:24:04;3.70;99.90
12655;DHT22;6392;44.644;11.448;2023-01-20T06:26:31;3.70;99.90
12655;DHT22;6392;44.644;11.448;2023-01-20T06:28:58;3.70;99.90
12655;DHT22;6392;44.644;11.448;2023-01-20T06:31:26;3.70;99.90
12655;DHT22;6392;44.644;11.448;2023-01-20T06:33:53;3.70;99.90
12655;DHT22;6392;44.644;11.448;2023-01-20T06:36:21;3.70;99.90
12655;DHT22;6392;44.644;11.448;2023-01-20T06:38:48;3.70;99.90
12655;DHT22;6392;44.644;11.448;2023-01-20T06:41:19;3.70;99.90
12655;DHT22;6392;44.644;11.448;2023-01-20T06:43:46;3.70;99.90
12655;DHT22;6392;44.644;11.448;2023-01-20T06:46:15;3.70;99.90
12655;DHT22;6392;44.644;11.448;2023-01-20T06:48:43;3.70;99.90
12655;DHT22;6392;44.644;11.448;2023-01-20T06:51:12;3.70;99.90
12655;DHT22;6392;44.644;11.448;2023-01-20T06:53:39;3.70;99.90
12655;DHT22;6392;44.644;11.448;2023-01-20T06:56:08;3.70;99.90
12655;DHT22;6392;44.644;11.448;2023-01-20T06:58:37;3.70;99.90
12655;DHT22;6392;44.644;11.448;2023-01-20T07:01:05;3.70;99.90
12655;DHT22;6392;44.644;11.448;2023-01-20T07:03:33;3.70;99.90
12655;DHT22;6392;44.644;11.448;2023-01-20T07:06:03;3.70;99.90
12655;DHT22;6392;44.644;11.448;2023-01-20T07:08:31;3.70;99.90
12655;DHT22;6392;44.644;11.448;2023-01-20T07:10:58;3.70;99.90
12655;DHT22;6392;44.644;11.448;2023-01-20T07:13:25;3.70;99.90
12655;DHT22;6392;44.644;11.448;2023-01-20T07:15:54;3.70;99.90
12655;DHT22;6392;44.644;11.448;2023-01-20T07:18:20;3.70;99.90
12655;DHT22;6392;44.644;11.448;2023-01-20T07:20:52;3.80;99.90
12655;DHT22;6392;44.644;11.448;2023-01-20T07:23:20;3.80;99.90
12655;DHT22;6392;44.644;11.448;2023-01-20T07:25:47;3.80;99.90
12655;DHT22;6392;44.644;11.448;2023-01-20T07:28:14;3.80;99.90
12655;DHT22;6392;44.644;11.448;2023-01-20T07:30:42;3.80;99.90
12655;DHT22;6392;44.644;11.448;2023-01-20T07:33:11;3.80;99.90
12655;DHT22;6392;44.644;11.448;2023-01-20T07:35:38;3.80;99.90
12655;DHT22;6392;44.644;11.448;2023-01-20T07:38:05;3.80;99.90
12655;DHT22;6392;44.644;11.448;2023-01-20T07:40:32;3.80;99.90
12655;DHT22;6392;44.644;11.448;2023-01-20T07:43:01;3.80;99.90
12655;DHT22;6392;44.644;11.448;2023-01-20T07:45:28;3.80;99.90
12655;DHT22;6392;44.644;11.448;2023-01-20T07:47:55;3.80;99.90
12655;DHT22;6392;44.644;11.448;2023-01-20T07:50:24;4.30;99.90
12655;DHT22;6392;44.644;11.448;2023-01-20T07:52:52;3.90;99.90
12655;DHT22;6392;44.644;11.448;2023-01-20T07:55:19;3.90;99.90
12655;DHT22;6392;44.644;11.448;2023-01-20T07:57:46;3.90;99.90
12655;DHT22;6392;44.644;11.448;2023-01-20T08:00:14;3.90;99.90
12655;DHT22;6392;44.644;11.448;2023-01-20T08:02:41;3.90;99.90
12655;DHT22;6392;44.644;11.448;2023-01-20T08:05:08;3.90;99.90
12655;DHT22;6392;44.644;11.448;2023-01-20T08:07:37;3.90;99.90
12655;DHT22;6392;44.644;11.448;2023-01-20T08:10:05;4.00;99.90
12655;DHT22;6392;44.644;11.448;2023-01-20T08:12:32;4.00;99.90
12655;DHT22;6392;44.644;11.448;2023-01-20T08:14:59;4.00;99.90
12655;DHT22;6392;44.644;11.448;2023-01-20T08:17:26;4.00;99.90
12655;DHT22;6392;44.644;11.448;2023-01-20T08:19:53;4.00;99.90
12655;DHT22;6392;44.644;11.448;2023-01-20T08:22:20;4.00;99.90
12655;DHT22;6392;44.644;11.448;2023-01-20T08:24:51;4.00;99.90
12655;DHT22;6392;44.644;11.448;2023-01-20T08:27:18;4.00;99.90
12655;DHT22;6392;44.644;11.448;2023-01-20T08:29:45;4.00;99.90
12655;DHT22;6392;44.644;11.448;2023-01-20T08:32:12;4.10;99.90
12655;DHT22;6392;44.644;11.448;2023-01-20T08:34:39;4.30;99.90
12655;DHT22;6392;44.644;11.448;2023-01-20T08:37:06;4.10;99.90
12655;DHT22;6392;44.644;11.448;2023-01-20T08:39:33;4.20;99.90
12655;DHT22;6392;44.644;11.448;2023-01-20T08:42:02;4.20;99.90
12655;DHT22;6392;44.644;11.448;2023-01-20T08:44:29;4.20;99.90
12655;DHT22;6392;44.644;11.448;2023-01-20T08:46:56;4.20;99.90
12655;DHT22;6392;44.644;11.448;2023-01-20T08:49:24;4.20;99.90
12655;DHT22;6392;44.644;11.448;2023-01-20T08:51:52;4.30;99.90
12655;DHT22;6392;44.644;11.448;2023-01-20T08:54:19;4.30;99.90
12655;DHT22;6392;44.644;11.448;2023-01-20T08:56:49;4.30;99.90
12655;DHT22;6392;44.644;11.448;2023-01-20T08:59:17;4.30;99.90
12655;DHT22;6392;44.644;11.448;2023-01-20T09:01:45;4.30;99.90
12655;DHT22;6392;44.644;11.448;2023-01-20T09:04:12;4.30;99.90
12655;DHT22;6392;44.644;11.448;2023-01-20T09:06:40;4.30;99.90
12655;DHT22;6392;44.644;11.448;2023-01-20T09:09:08;4.30;99.90
12655;DHT22;6392;44.644;11.448;2023-01-20T09:11:35;4.30;99.90
12655;DHT22;6392;44.644;11.448;2023-01-20T09:14:02;4.30;99.90
12655;DHT22;6392;44.644;11.448;2023-01-20T09:16:31;4.30;99.90
12655;DHT22;6392;44.644;11.448;2023-01-20T09:18:58;4.30;99.90
12655;DHT22;6392;44.644;11.448;2023-01-20T09:21:25;4.30;99.90
12655;DHT22;6392;44.644;11.448;2023-01-20T09:23:52;4.30;99.90
12655;DHT22;6392;44.644;11.448;2023-01-20T09:26:19;4.30;99.90
12655;DHT22;6392;44.644;11.448;2023-01-20T09:28:46;4.30;99.90
12655;DHT22;6392;44.644;11.448;2023-01-20T09:33:41;4.30;99.90
12655;DHT22;6392;44.644;11.448;2023-01-20T09:36:09;4.30;99.90
12655;DHT22;6392;44.644;11.448;2023-01-20T09:38:37;4.30;99.90
12655;DHT22;6392;44.644;11.448;2023-01-20T09:41:26;4.30;99.90
12655;DHT22;6392;44.644;11.448;2023-01-20T09:44:34;4.30;99.90
12655;DHT22;6392;44.644;11.448;2023-01-20T09:47:15;4.40;99.90
12655;DHT22;6392;44.644;11.448;2023-01-20T09:50:10;4.40;99.90
12655;DHT22;6392;44.644;11.448;2023-01-20T09:53:04;4.40;99.90
12655;DHT22;6392;44.644;11.448;2023-01-20T09:55:45;4.50;99.90
12655;DHT22;6392;44.644;11.448;2023-01-20T09:58:19;4.50;99.90
12655;DHT22;6392;44.644;11.448;2023-01-20T10:00:50;4.60;99.90
12655;DHT22;6392;44.644;11.448;2023-01-20T10:03:23;4.60;99.90
12655;DHT22;6392;44.644;11.448;2023-01-20T10:05:56;4.60;99.90
12655;DHT22;6392;44.644;11.448;2023-01-20T10:08:30;4.60;99.90
12655;DHT22;6392;44.644;11.448;2023-01-20T10:11:03;4.60;99.90
12655;DHT22;6392;44.644;11.448;2023-01-20T10:13:35;4.60;99.90
12655;DHT22;6392;44.644;11.448;2023-01-20T10:16:07;4.70;99.90
12655;DHT22;6392;44.644;11.448;2023-01-20T10:18:39;4.70;99.90
12655;DHT22;6392;44.644;11.448;2023-01-20T10:21:13;4.70;99.90
12655;DHT22;6392;44.644;11.448;2023-01-20T10:23:47;4.70;99.90
12655;DHT22;6392;44.644;11.448;2023-01-20T10:26:17;4.70;99.90
12655;DHT22;6392;44.644;11.448;2023-01-20T10:28:51;4.70;99.90
12655;DHT22;6392;44.644;11.448;2023-01-20T10:31:24;4.70;99.90
12655;DHT22;6392;44.644;11.448;2023-01-20T10:33:56;4.70;99.90
12655;DHT22;6392;44.644;11.448;2023-01-20T10:36:27;4.80;99.90
12655;DHT22;6392;44.644;11.448;2023-01-20T10:38:58;4.80;99.90
12655;DHT22;6392;44.644;11.448;2023-01-20T10:41:34;4.80;99.90
12655;DHT22;6392;44.644;11.448;2023-01-20T10:44:08;4.90;99.90
12655;DHT22;6392;44.644;11.448;2023-01-20T10:46:49;4.90;99.90
12655;DHT22;6392;44.644;11.448;2023-01-20T10:55:37;5.00;99.90
12655;DHT22;6392;44.644;11.448;2023-01-20T10:58:15;5.00;99.90
12655;DHT22;6392;44.644;11.448;2023-01-20T11:00:44;5.10;99.90
12655;DHT22;6392;44.644;11.448;2023-01-20T11:03:14;5.10;99.90
12655;DHT22;6392;44.644;11.448;2023-01-20T11:05:41;5.10;99.90
12655;DHT22;6392;44.644;11.448;2023-01-20T11:08:15;5.20;99.90
12655;DHT22;6392;44.644;11.448;2023-01-20T11:10:42;5.20;99.90
12655;DHT22;6392;44.644;11.448;2023-01-20T11:13:10;5.30;99.90
12655;DHT22;6392;44.644;11.448;2023-01-20T11:15:40;5.30;99.90
12655;DHT22;6392;44.644;11.448;2023-01-20T11:18:28;5.30;99.90
12655;DHT22;6392;44.644;11.448;2023-01-20T11:20:59;5.40;99.90
12655;DHT22;6392;44.644;11.448;2023-01-20T11:23:35;5.30;99.90
12655;DHT22;6392;44.644;11.448;2023-01-20T11:26:05;5.40;99.90
12655;DHT22;6392;44.644;11.448;2023-01-20T11:28:47;5.40;99.90
12655;DHT22;6392;44.644;11.448;2023-01-20T11:31:15;5.40;99.90
12655;DHT22;6392;44.644;11.448;2023-01-20T11:33:57;5.40;99.90
12655;DHT22;6392;44.644;11.448;2023-01-20T11:36:25;5.40;99.90
12655;DHT22;6392;44.644;11.448;2023-01-20T11:38:55;5.50;99.90
12655;DHT22;6392;44.644;11.448;2023-01-20T11:41:24;5.50;99.90
12655;DHT22;6392;44.644;11.448;2023-01-20T11:43:53;5.50;99.90
12655;DHT22;6392;44.644;11.448;2023-01-20T11:46:27;5.50;99.90
12655;DHT22;6392;44.644;11.448;2023-01-20T11:49:14;5.50;99.90
12655;DHT22;6392;44.644;11.448;2023-01-20T11:51:47;5.60;99.90
12655;DHT22;6392;44.644;11.448;2023-01-20T11:54:18;5.60;99.90
12655;DHT22;6392;44.644;11.448;2023-01-20T11:56:48;5.60;99.90
12655;DHT22;6392;44.644;11.448;2023-01-20T11:59:25;5.60;99.90
12655;DHT22;6392;44.644;11.448;2023-01-20T12:01:56;5.60;99.90
12655;DHT22;6392;44.644;11.448;2023-01-20T12:04:47;5.70;99.90
12655;DHT22;6392;44.644;11.448;2023-01-20T12:07:20;5.70;99.90
12655;DHT22;6392;44.644;11.448;2023-01-20T12:09:52;5.70;99.90
12655;DHT22;6392;44.644;11.448;2023-01-20T12:12:26;5.70;99.90
12655;DHT22;6392;44.644;11.448;2023-01-20T12:14:59;5.80;99.90
12655;DHT22;6392;44.644;11.448;2023-01-20T12:17:40;5.80;99.90
12655;DHT22;6392;44.644;11.448;2023-01-20T12:20:15;5.80;99.90
12655;DHT22;6392;44.644;11.448;2023-01-20T12:22:53;5.80;99.90
12655;DHT22;6392;44.644;11.448;2023-01-20T12:25:26;5.90;99.90
12655;DHT22;6392;44.644;11.448;2023-01-20T12:27:55;5.90;99.90
12655;DHT22;6392;44.644;11.448;2023-01-20T12:30:38;5.90;99.90
12655;DHT22;6392;44.644;11.448;2023-01-20T12:33:20;5.90;99.90
12655;DHT22;6392;44.644;11.448;2023-01-20T12:36:21;6.00;99.90
12655;DHT22;6392;44.644;11.448;2023-01-20T12:39:14;6.00;99.90
12655;DHT22;6392;44.644;11.448;2023-01-20T12:44:43;6.10;99.90
12655;DHT22;6392;44.644;11.448;2023-01-20T12:47:19;6.10;99.90
12655;DHT22;6392;44.644;11.448;2023-01-20T12:50:19;6.10;99.90
12655;DHT22;6392;44.644;11.448;2023-01-20T12:53:01;6.20;99.90
12655;DHT22;6392;44.644;11.448;2023-01-20T12:55:40;6.20;99.90
12655;DHT22;6392;44.644;11.448;2023-01-20T12:58:18;6.30;99.90
12655;DHT22;6392;44.644;11.448;2023-01-20T13:01:20;6.30;99.90
12655;DHT22;6392;44.644;11.448;2023-01-20T13:04:30;6.40;99.90
12655;DHT22;6392;44.644;11.448;2023-01-20T13:07:17;6.50;99.90
12655;DHT22;6392;44.644;11.448;2023-01-20T13:10:15;6.50;99.90
12655;DHT22;6392;44.644;11.448;2023-01-20T13:12:50;6.50;99.90
12655;DHT22;6392;44.644;11.448;2023-01-20T13:15:27;6.60;99.90
12655;DHT22;6392;44.644;11.448;2023-01-20T13:18:22;6.60;99.90
12655;DHT22;6392;44.644;11.448;2023-01-20T13:20:51;6.60;99.90
12655;DHT22;6392;44.644;11.448;2023-01-20T13:23:23;6.60;99.90
12655;DHT22;6392;44.644;11.448;2023-01-20T13:25:54;6.60;99.90
12655;DHT22;6392;44.644;11.448;2023-01-20T13:28:23;6.70;99.90
12655;DHT22;6392;44.644;11.448;2023-01-20T13:30:53;6.70;99.90
12655;DHT22;6392;44.644;11.448;2023-01-20T13:33:34;6.70;99.90
12655;DHT22;6392;44.644;11.448;2023-01-20T13:36:14;6.70;99.90
12655;DHT22;6392;44.644;11.448;2023-01-20T13:38:42;6.70;99.90
12655;DHT22;6392;44.644;11.448;2023-01-20T13:41:10;6.70;99.90
12655;DHT22;6392;44.644;11.448;2023-01-20T13:43:55;6.70;99.90
12655;DHT22;6392;44.644;11.448;2023-01-20T13:46:46;6.70;99.90
12655;DHT22;6392;44.644;11.448;2023-01-20T13:49:27;6.70;99.90
12655;DHT22;6392;44.644;11.448;2023-01-20T13:51:55;6.70;99.90
12655;DHT22;6392;44.644;11.448;2023-01-20T13:54:45;6.70;99.90
12655;DHT22;6392;44.644;11.448;2023-01-20T13:57:35;6.70;99.90
12655;DHT22;6392;44.644;11.448;2023-01-20T14:00:14;6.70;99.90
12655;DHT22;6392;44.644;11.448;2023-01-20T14:02:43;6.70;99.90
12655;DHT22;6392;44.644;11.448;2023-01-20T14:05:22;6.70;99.90
12655;DHT22;6392;44.644;11.448;2023-01-20T14:07:55;6.70;99.90
12655;DHT22;6392;44.644;11.448;2023-01-20T14:10:30;6.70;99.90
12655;DHT22;6392;44.644;11.448;2023-01-20T14:13:09;6.70;99.90
12655;DHT22;6392;44.644;11.448;2023-01-20T14:15:41;8.30;99.90
12655;DHT22;6392;44.644;11.448;2023-01-20T14:18:19;6.60;99.90
12655;DHT22;6392;44.644;11.448;2023-01-20T14:21:01;6.60;99.90
12655;DHT22;6392;44.644;11.448;2023-01-20T14:23:34;6.60;99.90
12655;DHT22;6392;44.644;11.448;2023-01-20T14:26:05;6.60;99.90
12655;DHT22;6392;44.644;11.448;2023-01-20T14:28:33;6.60;99.90
12655;DHT22;6392;44.644;11.448;2023-01-20T14:31:31;6.60;99.90
12655;DHT22;6392;44.644;11.448;2023-01-20T14:34:24;6.50;99.90
12655;DHT22;6392;44.644;11.448;2023-01-20T14:36:52;6.50;99.90
12655;DHT22;6392;44.644;11.448;2023-01-20T14:39:22;6.50;99.90
12655;DHT22;6392;44.644;11.448;2023-01-20T14:41:51;6.60;99.90
12655;DHT22;6392;44.644;11.448;2023-01-20T14:44:20;6.60;99.90
12655;DHT22;6392;44.644;11.448;2023-01-20T14:46:48;6.60;99.90
12655;DHT22;6392;44.644;11.448;2023-01-20T14:49:20;6.60;99.90
12655;DHT22;6392;44.644;11.448;2023-01-20T14:51:48;6.50;99.90
12655;DHT22;6392;44.644;11.448;2023-01-20T14:54:31;6.50;99.90
12655;DHT22;6392;44.644;11.448;2023-01-20T14:59:45;6.40;99.90
12655;DHT22;6392;44.644;11.448;2023-01-20T15:02:18;6.40;99.90
12655;DHT22;6392;44.644;11.448;2023-01-20T15:04:51;6.30;99.90
12655;DHT22;6392;44.644;11.448;2023-01-20T15:07:19;6.30;99.90
12655;DHT22;6392;44.644;11.448;2023-01-20T15:09:54;6.20;99.90
12655;DHT22;6392;44.644;11.448;2023-01-20T15:12:39;6.20;99.90
12655;DHT22;6392;44.644;11.448;2023-01-20T15:15:28;6.10;99.90
12655;DHT22;6392;44.644;11.448;2023-01-20T15:20:51;6.20;99.90
12655;DHT22;6392;44.644;11.448;2023-01-20T15:23:21;6.20;99.90
12655;DHT22;6392;44.644;11.448;2023-01-20T15:25:50;6.10;99.90
12655;DHT22;6392;44.644;11.448;2023-01-20T15:28:28;6.20;99.90
12655;DHT22;6392;44.644;11.448;2023-01-20T15:30:57;6.20;99.90
12655;DHT22;6392;44.644;11.448;2023-01-20T15:33:24;6.20;99.90
12655;DHT22;6392;44.644;11.448;2023-01-20T15:35:55;6.20;99.90
12655;DHT22;6392;44.644;11.448;2023-01-20T15:38:23;6.20;99.90
12655;DHT22;6392;44.644;11.448;2023-01-20T15:40:51;6.20;99.90
12655;DHT22;6392;44.644;11.448;2023-01-20T15:43:18;6.20;99.90
12655;DHT22;6392;44.644;11.448;2023-01-20T15:45:45;6.20;99.90
12655;DHT22;6392;44.644;11.448;2023-01-20T15:48:14;6.10;99.90
12655;DHT22;6392;44.644;11.448;2023-01-20T15:50:42;6.10;99.90
12655;DHT22;6392;44.644;11.448;2023-01-20T15:53:10;6.10;99.90
12655;DHT22;6392;44.644;11.448;2023-01-20T15:55:44;6.10;99.90
12655;DHT22;6392;44.644;11.448;2023-01-20T15:58:20;6.00;99.90
12655;DHT22;6392;44.644;11.448;2023-01-20T16:00:48;5.90;99.90
12655;DHT22;6392;44.644;11.448;2023-01-20T16:03:15;5.90;99.90
12655;DHT22;6392;44.644;11.448;2023-01-20T16:05:43;5.80;99.90
12655;DHT22;6392;44.644;11.448;2023-01-20T16:08:15;5.70;99.90
12655;DHT22;6392;44.644;11.448;2023-01-20T16:10:43;5.70;99.90
12655;DHT22;6392;44.644;11.448;2023-01-20T16:13:12;5.70;99.90
12655;DHT22;6392;44.644;11.448;2023-01-20T16:15:40;5.70;99.90
12655;DHT22;6392;44.644;11.448;2023-01-20T16:18:11;5.60;99.90
12655;DHT22;6392;44.644;11.448;2023-01-20T16:20:40;5.60;99.90
12655;DHT22;6392;44.644;11.448;2023-01-20T16:23:07;5.60;99.90
12655;DHT22;6392;44.644;11.448;2023-01-20T16:25:36;5.60;99.90
12655;DHT22;6392;44.644;11.448;2023-01-20T16:28:13;5.60;99.90
12655;DHT22;6392;44.644;11.448;2023-01-20T16:30:40;5.50;99.90
12655;DHT22;6392;44.644;11.448;2023-01-20T16:33:15;5.50;99.90
12655;DHT22;6392;44.644;11.448;2023-01-20T16:35:43;5.50;99.90
12655;DHT22;6392;44.644;11.448;2023-01-20T16:38:12;5.50;99.90